createdAt,value
2019-03-13T00:02:33.211Z,96551.25
2019-03-13T00:05:09.293Z,96536.08
2019-03-13T00:07:43.958Z,96533.17
2019-03-13T00:10:17.299Z,96544.21
2019-03-13T00:12:51.756Z,96534.90
2019-03-13T00:15:26.292Z,96534.90
2019-03-13T00:18:01.297Z,96537.41
2019-03-13T00:20:36.958Z,96529.61
2019-03-13T00:23:11.304Z,96528.65
2019-03-13T00:25:45.887Z,96530.19
2019-03-13T00:28:19.282Z,96528.28
2019-03-13T00:30:53.671Z,96532.27
2019-03-13T00:33:28.278Z,96515.62
2019-03-13T00:36:03.236Z,96515.62
2019-03-13T00:38:37.654Z,96521.38
2019-03-13T00:41:12.280Z,96521.38
2019-03-13T00:43:46.896Z,96515.75
2019-03-13T00:46:21.288Z,96529.04
2019-03-13T00:48:55.654Z,96528.08
2019-03-13T00:51:30.293Z,96528.08
2019-03-13T00:54:05.295Z,96509.87
2019-03-13T00:56:40.093Z,96525.45
2019-03-13T00:59:15.710Z,96506.01
2019-03-13T01:02:07.133Z,96508.91
2019-03-13T01:04:49.711Z,96508.91
2019-03-13T01:07:24.288Z,96518.47
2019-03-13T01:09:58.904Z,96523.61
2019-03-13T01:12:32.293Z,96525.89
2019-03-13T01:15:07.287Z,96524.38
2019-03-13T01:17:41.707Z,96524.38
2019-03-13T01:20:17.325Z,96526.51
2019-03-13T01:22:51.035Z,96538.45
2019-03-13T01:25:24.299Z,96538.21
2019-03-13T01:27:58.803Z,96527.21
2019-03-13T01:30:42.648Z,96531.59
2019-03-13T01:33:17.667Z,96548.14
2019-03-13T01:35:57.280Z,96540.00
2019-03-13T01:38:31.773Z,96559.60
2019-03-13T01:41:05.285Z,96545.00
2019-03-13T01:43:39.642Z,96541.92
2019-03-13T01:46:14.314Z,96541.92
2019-03-13T01:48:48.892Z,96540.13
2019-03-13T01:51:22.088Z,96540.63
2019-03-13T01:53:56.313Z,96549.83
2019-03-13T01:56:31.140Z,96537.89
2019-03-13T01:59:05.665Z,96553.10
2019-03-13T02:01:40.105Z,96553.10
2019-03-13T02:04:14.654Z,96558.33
2019-03-13T02:06:49.021Z,96558.33
2019-03-13T02:09:23.323Z,96550.58
2019-03-13T02:11:58.283Z,96559.92
2019-03-13T02:14:32.669Z,96559.92
2019-03-13T02:17:07.660Z,96561.58
2019-03-13T02:19:41.947Z,96558.98
2019-03-13T02:22:16.255Z,96548.17
2019-03-13T02:24:53.952Z,96548.17
2019-03-13T02:27:26.877Z,96555.61
2019-03-13T02:30:00.454Z,96558.44
2019-03-13T02:32:35.116Z,96549.55
2019-03-13T02:35:10.139Z,96564.79
2019-03-13T02:37:44.953Z,96575.53
2019-03-13T02:40:19.288Z,96575.53
2019-03-13T02:42:53.886Z,96569.16
2019-03-13T02:45:27.294Z,96565.31
2019-03-13T02:48:01.936Z,96566.20
2019-03-13T02:50:36.295Z,96566.20
2019-03-13T02:53:11.081Z,96571.70
2019-03-13T02:55:45.956Z,96558.30
2019-03-13T02:58:20.344Z,96558.30
2019-03-13T03:01:13.463Z,96570.19
2019-03-13T03:03:51.791Z,96562.35
2019-03-13T03:06:26.298Z,96557.11
2019-03-13T03:09:00.898Z,96577.69
2019-03-13T03:11:37.286Z,96562.49
2019-03-13T03:14:12.060Z,96560.75
2019-03-13T03:16:46.685Z,96571.23
2019-03-13T03:19:21.279Z,96574.94
2019-03-13T03:21:55.927Z,96580.73
2019-03-13T03:24:29.279Z,96597.08
2019-03-13T03:27:04.128Z,96609.11
2019-03-13T03:29:39.213Z,96614.77
2019-03-13T03:32:13.864Z,96619.38
2019-03-13T03:34:47.029Z,96629.34
2019-03-13T03:37:20.275Z,96636.66
2019-03-13T03:39:54.690Z,96654.63
2019-03-13T03:42:29.286Z,96654.63
2019-03-13T03:45:03.721Z,96660.25
2019-03-13T03:47:38.457Z,96684.27
2019-03-13T03:50:13.951Z,96678.55
2019-03-13T03:52:48.707Z,96703.27
2019-03-13T03:55:23.377Z,96691.08
2019-03-13T03:57:58.132Z,96711.28
2019-03-13T04:00:32.658Z,96737.58
2019-03-13T04:03:07.300Z,96737.58
2019-03-13T04:05:42.295Z,96735.95
2019-03-13T04:08:16.873Z,96743.00
2019-03-13T04:10:50.282Z,96735.09
2019-03-13T04:13:24.695Z,96745.90
2019-03-13T04:15:59.129Z,96745.90
2019-03-13T04:18:33.733Z,96751.12
2019-03-13T04:21:08.530Z,96734.84
2019-03-13T04:23:43.119Z,96762.59
2019-03-13T04:26:17.696Z,96790.94
2019-03-13T04:28:52.302Z,96790.94
2019-03-13T04:31:26.922Z,96779.68
2019-03-13T04:34:00.279Z,96758.83
2019-03-13T04:36:34.938Z,96780.24
2019-03-13T04:39:09.221Z,96798.30
2019-03-13T04:41:43.704Z,96819.27
2019-03-13T04:44:18.265Z,96819.27
2019-03-13T04:46:52.797Z,96819.70
2019-03-13T04:49:25.863Z,96823.73
2019-03-13T04:52:00.272Z,96836.67
2019-03-13T04:54:35.126Z,96848.86
2019-03-13T04:57:09.888Z,96854.97
2019-03-13T04:59:43.002Z,96871.13
2019-03-13T05:02:16.083Z,96880.62
2019-03-13T05:04:50.274Z,96880.62
2019-03-13T05:07:24.893Z,96878.97
2019-03-13T05:09:58.286Z,96882.33
2019-03-13T05:12:32.634Z,96882.80
2019-03-13T05:15:07.691Z,96882.69
2019-03-13T05:17:42.277Z,96883.58
2019-03-13T05:20:16.858Z,96898.83
2019-03-13T05:22:51.277Z,96907.98
2019-03-13T05:25:25.729Z,96904.02
2019-03-13T05:28:00.511Z,96903.83
2019-03-13T05:30:35.307Z,96907.49
2019-03-13T05:33:10.109Z,96907.80
2019-03-13T05:35:44.681Z,96914.78
2019-03-13T05:38:20.278Z,96914.78
2019-03-13T05:40:55.775Z,96913.23
2019-03-13T05:43:30.281Z,96910.16
2019-03-13T05:46:06.784Z,96918.86
2019-03-13T05:48:41.789Z,96927.15
2019-03-13T05:51:15.053Z,96927.27
2019-03-13T05:53:47.796Z,96939.80
2019-03-13T05:56:22.275Z,96931.70
2019-03-13T05:58:56.943Z,96936.60
2019-03-13T06:01:30.278Z,96938.88
2019-03-13T06:04:04.652Z,96958.27
2019-03-13T06:06:39.275Z,96958.27
2019-03-13T06:09:13.937Z,96960.41
2019-03-13T06:11:48.770Z,96977.64
2019-03-13T06:14:23.280Z,96969.41
2019-03-13T06:16:57.644Z,96969.41
2019-03-13T06:19:32.276Z,96968.94
2019-03-13T06:22:06.825Z,96971.86
2019-03-13T06:24:41.270Z,96983.89
2019-03-13T06:27:15.945Z,96983.89
2019-03-13T06:29:49.110Z,96980.38
2019-03-13T06:32:22.313Z,96980.38
2019-03-13T06:34:56.766Z,96986.81
2019-03-13T06:37:31.267Z,96986.48
2019-03-13T06:40:06.697Z,96999.47
2019-03-13T06:42:41.273Z,97003.73
2019-03-13T06:45:16.666Z,97007.25
2019-03-13T06:47:51.272Z,97011.66
2019-03-13T06:50:25.943Z,97026.47
2019-03-13T06:52:59.070Z,97016.53
2019-03-13T06:55:33.320Z,97007.05
2019-03-13T06:58:07.920Z,97005.34
2019-03-13T07:01:00.659Z,97006.67
2019-03-13T07:03:53.281Z,97018.83
2019-03-13T07:06:52.685Z,97023.25
2019-03-13T07:09:41.289Z,97033.11
2019-03-13T07:12:30.291Z,97021.93
2019-03-13T07:15:36.023Z,97043.53
2019-03-13T07:18:19.315Z,97018.19
2019-03-13T07:21:08.290Z,97024.46
2019-03-13T07:24:00.431Z,97040.95
2019-03-13T07:27:02.635Z,97025.75
2019-03-13T07:30:04.301Z,97030.34
2019-03-13T07:33:03.620Z,97037.92
2019-03-13T07:35:52.950Z,97026.50
2019-03-13T07:38:34.773Z,97023.55
2019-03-13T07:41:29.678Z,97023.55
2019-03-13T07:44:25.598Z,97019.98
2019-03-13T07:47:18.681Z,97020.69
2019-03-13T07:50:18.970Z,97025.05
2019-03-13T07:52:59.638Z,96995.70
2019-03-13T07:55:45.713Z,96995.70
2019-03-13T07:58:25.674Z,97002.41
2019-03-13T08:01:05.948Z,96985.72
2019-03-13T08:04:05.072Z,97002.98
2019-03-13T08:06:52.651Z,96974.87
2019-03-13T08:09:48.608Z,97025.31
2019-03-13T08:12:40.923Z,96996.06
2019-03-13T08:15:44.168Z,97003.03
2019-03-13T08:18:26.275Z,96999.10
2019-03-13T08:21:25.684Z,97012.33
2019-03-13T08:24:18.947Z,97012.33
2019-03-13T08:27:18.117Z,97003.19
2019-03-13T08:30:02.570Z,97008.93
2019-03-13T08:33:07.256Z,97000.84
2019-03-13T08:36:00.677Z,97000.84
2019-03-13T08:38:43.746Z,97022.30
2019-03-13T08:41:23.350Z,96998.41
2019-03-13T08:44:15.667Z,97011.11
2019-03-13T08:47:12.111Z,97015.69
2019-03-13T08:50:02.656Z,97012.89
2019-03-13T08:53:02.250Z,97012.89
2019-03-13T08:55:54.645Z,96993.77
2019-03-13T08:58:50.932Z,96987.11
2019-03-13T09:01:55.269Z,96992.09
2019-03-13T09:04:57.391Z,96989.49
2019-03-13T09:07:53.710Z,96990.63
2019-03-13T09:10:46.737Z,96991.01
2019-03-13T09:13:32.767Z,96991.01
2019-03-13T09:16:15.945Z,96992.58
2019-03-13T09:19:11.545Z,97009.25
2019-03-13T09:21:58.729Z,96998.11
2019-03-13T09:24:54.675Z,96987.82
2019-03-13T09:27:57.430Z,97016.42
2019-03-13T09:30:59.602Z,96986.70
2019-03-13T09:34:12.491Z,97000.08
2019-03-13T09:37:17.720Z,97000.08
2019-03-13T09:40:03.452Z,96996.49
2019-03-13T09:42:57.078Z,96989.05
2019-03-13T09:45:45.678Z,96989.34
2019-03-13T09:48:27.277Z,96989.34
2019-03-13T09:51:14.411Z,96961.13
2019-03-13T09:54:23.949Z,96957.55
2019-03-13T09:57:23.283Z,96966.41
2019-03-13T10:00:22.952Z,96964.45
2019-03-13T10:03:15.838Z,96962.97
2019-03-13T10:06:26.600Z,96961.66
2019-03-13T10:09:14.873Z,96967.17
2019-03-13T10:11:58.657Z,96969.67
2019-03-13T10:14:46.386Z,96950.11
2019-03-13T10:17:38.315Z,96946.16
2019-03-13T10:20:31.575Z,96971.39
2019-03-13T10:23:19.277Z,96973.70
2019-03-13T10:26:11.554Z,96951.85
2019-03-13T10:29:04.784Z,96941.00
2019-03-13T10:31:52.500Z,96950.09
2019-03-13T10:34:49.252Z,96937.97
2019-03-13T10:37:45.500Z,96947.43
2019-03-13T10:40:57.280Z,96929.64
2019-03-13T10:44:06.275Z,96929.80
2019-03-13T10:46:51.071Z,96921.52
2019-03-13T10:49:50.721Z,96928.06
2019-03-13T10:52:42.748Z,96928.06
2019-03-13T10:55:33.661Z,96934.64
2019-03-13T10:58:14.944Z,96933.46
2019-03-13T11:00:58.109Z,96937.34
2019-03-13T11:03:51.072Z,96930.17
2019-03-13T11:06:54.880Z,96935.95
2019-03-13T11:09:40.608Z,96908.72
2019-03-13T11:12:34.274Z,96927.59
2019-03-13T11:15:24.672Z,96939.70
2019-03-13T11:18:18.217Z,96942.33
2019-03-13T11:21:17.403Z,96916.55
2019-03-13T11:24:09.598Z,96920.44
2019-03-13T11:27:12.453Z,96929.00
2019-03-13T11:30:11.408Z,96917.20
2019-03-13T11:33:06.304Z,96917.22
2019-03-13T11:35:58.643Z,96925.80
2019-03-13T11:38:54.640Z,96953.44
2019-03-13T11:41:45.667Z,96960.53
2019-03-13T11:44:38.670Z,96933.91
2019-03-13T11:47:26.103Z,96931.83
2019-03-13T11:50:18.517Z,96923.65
2019-03-13T11:53:08.593Z,96923.65
2019-03-13T11:56:02.741Z,96923.95
2019-03-13T11:59:08.703Z,96931.02
2019-03-13T12:02:03.426Z,96927.23
2019-03-13T12:04:52.614Z,96942.47
2019-03-13T12:07:49.293Z,96920.26
2019-03-13T12:10:45.875Z,96918.92
2019-03-13T12:13:44.738Z,96908.27
2019-03-13T12:16:47.328Z,96880.70
2019-03-13T12:19:39.282Z,96880.70
2019-03-13T12:22:33.277Z,96908.45
2019-03-13T12:25:26.603Z,96886.22
2019-03-13T12:28:25.722Z,96886.22
2019-03-13T12:31:13.989Z,96882.56
2019-03-13T12:33:54.640Z,96852.58
2019-03-13T12:36:50.532Z,96852.58
2019-03-13T12:39:46.767Z,96834.28
2019-03-13T12:42:49.277Z,96849.12
2019-03-13T12:45:38.288Z,96832.80
2019-03-13T12:48:35.709Z,96818.45
2019-03-13T12:51:28.947Z,96797.30
2019-03-13T12:54:37.649Z,96800.42
2019-03-13T12:57:24.499Z,96798.70
2019-03-13T13:00:18.547Z,96801.98
2019-03-13T13:03:10.399Z,96793.91
2019-03-13T13:05:57.281Z,96809.20
2019-03-13T13:08:49.314Z,96787.42
2019-03-13T13:11:49.064Z,96798.11
2019-03-13T13:26:19.331Z,96773.47
2019-03-13T13:28:55.082Z,96784.94
2019-03-13T13:31:29.705Z,96771.55
2019-03-13T13:34:04.293Z,96771.55
2019-03-13T13:36:38.899Z,96775.96
2019-03-13T13:39:12.305Z,96779.64
2019-03-13T13:41:47.281Z,96789.72
2019-03-13T13:44:22.283Z,96793.59
2019-03-13T13:46:56.701Z,96781.17
2019-03-13T13:49:31.621Z,96781.17
2019-03-13T13:52:06.335Z,96788.34
2019-03-13T13:54:41.278Z,96790.21
2019-03-13T13:57:15.880Z,96790.64
2019-03-13T14:00:22.716Z,96770.59
2019-03-13T14:02:57.143Z,96770.59
2019-03-13T14:05:32.873Z,96784.94
2019-03-13T14:08:06.409Z,96777.66
2019-03-13T14:10:40.890Z,96801.11
2019-03-13T14:13:15.659Z,96817.62
2019-03-13T14:15:50.316Z,96787.31
2019-03-13T14:18:24.945Z,96765.25
2019-03-13T14:20:59.317Z,96777.83
2019-03-13T14:23:34.107Z,96780.86
2019-03-13T14:26:08.717Z,96771.83
2019-03-13T14:28:43.271Z,96771.32
2019-03-13T14:31:17.941Z,96767.19
2019-03-13T14:33:52.686Z,96766.92
2019-03-13T14:36:28.269Z,96781.56
2019-03-13T14:39:02.944Z,96765.55
2019-03-13T14:41:39.265Z,96777.51
2019-03-13T14:44:13.716Z,96794.92
2019-03-13T14:46:48.274Z,96772.21
2019-03-13T14:49:23.282Z,96784.95
2019-03-13T14:51:57.883Z,96785.09
2019-03-13T14:54:32.076Z,96774.11
2019-03-13T14:57:06.271Z,96772.52
2019-03-13T14:59:40.896Z,96782.80
2019-03-13T15:02:15.291Z,96798.72
2019-03-13T15:04:50.231Z,96774.53
2019-03-13T15:07:24.937Z,96776.61
2019-03-13T15:09:59.614Z,96780.23
2019-03-13T15:12:34.273Z,96780.23
2019-03-13T15:15:09.739Z,96773.38
2019-03-13T15:17:44.332Z,96761.30
2019-03-13T15:20:19.276Z,96796.23
2019-03-13T15:22:56.106Z,96772.25
2019-03-13T15:25:30.657Z,96779.22
2019-03-13T15:28:05.266Z,96766.19
2019-03-13T15:30:39.869Z,96761.63
2019-03-13T15:33:13.285Z,96753.22
2019-03-13T15:35:48.119Z,96763.36
2019-03-13T15:38:22.867Z,96758.39
2019-03-13T15:40:57.972Z,96759.42
2019-03-13T15:43:32.355Z,96761.50
2019-03-13T15:46:06.913Z,96751.84
2019-03-13T15:48:41.640Z,96760.30
2019-03-13T15:51:18.278Z,96770.02
2019-03-13T15:53:53.278Z,96762.77
2019-03-13T15:56:28.099Z,96763.13
2019-03-13T15:59:02.751Z,96762.52
2019-03-13T16:01:40.630Z,96756.39
2019-03-13T16:04:15.274Z,96760.81
2019-03-13T16:06:49.943Z,96745.28
2019-03-13T16:09:24.608Z,96750.10
2019-03-13T16:11:59.287Z,96745.37
2019-03-13T16:14:33.679Z,96745.37
2019-03-13T16:17:15.795Z,96749.91
2019-03-13T16:20:03.839Z,96758.05
2019-03-13T16:23:02.327Z,96714.55
2019-03-13T16:25:48.312Z,96714.55
2019-03-13T16:28:44.037Z,96718.06
2019-03-13T16:31:35.048Z,96714.25
2019-03-13T16:34:31.176Z,96713.49
2019-03-13T16:37:25.042Z,96717.91
2019-03-13T16:40:17.602Z,96717.63
2019-03-13T16:43:13.019Z,96706.61
2019-03-13T16:46:03.410Z,96706.61
2019-03-13T16:49:11.214Z,96700.33
2019-03-13T16:52:07.448Z,96695.58
2019-03-13T16:55:02.552Z,96699.42
2019-03-13T16:57:58.377Z,96699.42
2019-03-13T17:00:56.350Z,96719.34
2019-03-13T17:03:36.396Z,96711.36
2019-03-13T17:06:35.538Z,96726.38
2019-03-13T17:09:25.078Z,96716.59
2019-03-13T17:12:25.282Z,96723.95
2019-03-13T17:15:10.263Z,96725.17
2019-03-13T17:18:08.619Z,96717.20
2019-03-13T17:21:02.720Z,96717.05
2019-03-13T17:23:49.225Z,96713.39
2019-03-13T17:27:08.068Z,96701.88
2019-03-13T17:30:05.934Z,96719.58
2019-03-13T17:32:52.357Z,96711.21
2019-03-13T17:35:38.320Z,96715.10
2019-03-13T17:38:25.872Z,96696.97
2019-03-13T17:41:24.707Z,96721.73
2019-03-13T17:44:05.360Z,96721.73
2019-03-13T17:47:13.990Z,96697.73
2019-03-13T17:50:17.644Z,96684.73
2019-03-13T17:53:20.631Z,96683.20
2019-03-13T17:56:10.018Z,96685.61
2019-03-13T17:59:01.433Z,96680.81
2019-03-13T18:01:54.578Z,96680.81
2019-03-13T18:04:58.649Z,96691.67
2019-03-13T18:08:07.990Z,96676.13
2019-03-13T18:10:54.540Z,96676.13
2019-03-13T18:14:02.642Z,96699.91
2019-03-13T18:17:22.741Z,96680.72
2019-03-13T18:20:21.420Z,96675.28
2019-03-13T18:23:31.558Z,96671.94
2019-03-13T18:26:29.245Z,96665.31
2019-03-13T18:29:41.433Z,96689.22
2019-03-13T18:32:46.871Z,96671.58
2019-03-13T18:36:14.021Z,96694.11
2019-03-13T18:39:08.028Z,96694.11
2019-03-13T18:42:02.015Z,96711.15
2019-03-13T18:45:04.790Z,96685.32
2019-03-13T18:48:01.948Z,96677.27
2019-03-13T18:50:50.708Z,96693.22
2019-03-13T18:53:49.689Z,96678.99
2019-03-13T18:56:38.430Z,96676.89
2019-03-13T18:59:38.268Z,96676.30
2019-03-13T19:02:17.833Z,96673.61
2019-03-13T19:04:52.678Z,96672.52
2019-03-13T19:07:27.248Z,96672.52
2019-03-13T19:10:01.784Z,96691.12
2019-03-13T19:12:34.859Z,96697.19
2019-03-13T19:15:11.275Z,96673.69
2019-03-13T19:17:46.111Z,96677.61
2019-03-13T19:20:22.290Z,96675.27
2019-03-13T19:22:57.273Z,96666.61
2019-03-13T19:25:32.090Z,96665.31
2019-03-13T19:28:06.941Z,96678.98
2019-03-13T19:30:41.324Z,96679.77
2019-03-13T19:33:16.260Z,96672.95
2019-03-13T19:35:50.946Z,96683.95
2019-03-13T19:38:25.355Z,96666.83
2019-03-13T19:41:00.156Z,96670.86
2019-03-13T19:43:34.943Z,96667.20
2019-03-13T19:46:08.074Z,96679.63
2019-03-13T19:48:42.477Z,96688.78
2019-03-13T19:51:17.283Z,96684.81
2019-03-13T19:53:51.941Z,96678.77
2019-03-13T19:56:26.322Z,96674.59
2019-03-13T19:59:00.927Z,96692.56
2019-03-13T20:01:34.987Z,96681.15
2019-03-13T20:04:07.856Z,96686.65
2019-03-13T20:06:42.658Z,96677.73
2019-03-13T20:09:17.271Z,96677.82
2019-03-13T20:11:52.331Z,96677.82
2019-03-13T20:14:27.641Z,96674.46
2019-03-13T20:17:02.408Z,96671.75
2019-03-13T20:19:37.513Z,96688.52
2019-03-13T20:22:12.250Z,96676.95
2019-03-13T20:24:46.783Z,96670.58
2019-03-13T20:27:20.002Z,96674.40
2019-03-13T20:29:54.889Z,96670.78
2019-03-13T20:32:27.752Z,96671.84
2019-03-13T20:35:02.242Z,96659.02
2019-03-13T20:37:36.759Z,96686.03
2019-03-13T20:40:11.690Z,96672.60
2019-03-13T20:42:45.939Z,96669.20
2019-03-13T20:45:22.943Z,96672.06
2019-03-13T20:47:56.333Z,96673.86
2019-03-13T20:50:37.101Z,96671.56
2019-03-13T20:53:07.322Z,96661.27
2019-03-13T20:55:42.090Z,96667.64
2019-03-13T20:58:16.643Z,96659.23
2019-03-13T21:00:51.326Z,96668.89
2019-03-13T21:03:27.132Z,96669.02
2019-03-13T21:06:01.774Z,96662.25
2019-03-13T21:08:37.278Z,96659.34
2019-03-13T21:11:11.946Z,96666.62
2019-03-13T21:13:45.071Z,96682.66
2019-03-13T21:16:19.327Z,96695.48
2019-03-13T21:18:53.946Z,96690.91
2019-03-13T21:21:27.053Z,96667.75
2019-03-13T21:24:00.044Z,96664.50
2019-03-13T21:26:34.353Z,96661.33
2019-03-13T21:29:08.955Z,96660.38
2019-03-13T21:31:43.276Z,96662.35
2019-03-13T21:34:17.885Z,96661.86
2019-03-13T21:36:52.277Z,96643.47
2019-03-13T21:39:26.755Z,96643.47
2019-03-13T21:42:01.295Z,96661.19
2019-03-13T21:44:36.209Z,96645.01
2019-03-13T21:47:10.958Z,96649.48
2019-03-13T21:49:46.288Z,96647.89
2019-03-13T21:52:21.282Z,96645.88
2019-03-13T21:54:56.670Z,96645.88
2019-03-13T21:57:31.282Z,96641.63
2019-03-13T22:00:06.956Z,96645.56
2019-03-13T22:02:43.265Z,96648.61
2019-03-13T22:05:25.794Z,96648.14
2019-03-13T22:07:53.968Z,96649.54
2019-03-13T22:10:28.697Z,96634.61
2019-03-13T22:13:03.274Z,96634.61
2019-03-13T22:15:37.771Z,96635.94
2019-03-13T22:18:12.148Z,96656.25
2019-03-13T22:20:46.715Z,96662.27
2019-03-13T22:23:19.871Z,96662.27
2019-03-13T22:25:54.288Z,96656.05
2019-03-13T22:28:28.934Z,96652.88
2019-03-13T22:31:02.860Z,96655.83
2019-03-13T22:33:37.290Z,96660.76
2019-03-13T22:36:11.879Z,96673.90
2019-03-13T22:38:45.266Z,96653.14
2019-03-13T22:41:19.342Z,96657.64
2019-03-13T22:43:53.913Z,96657.64
2019-03-13T22:46:28.130Z,96667.16
2019-03-13T22:49:02.784Z,96680.62
2019-03-13T22:51:37.289Z,96671.66
2019-03-13T22:54:11.686Z,96662.64
2019-03-13T22:56:46.115Z,96666.42
2019-03-13T22:59:20.721Z,96665.01
2019-03-13T23:01:55.285Z,96660.28
2019-03-13T23:04:30.517Z,96667.03
2019-03-13T23:07:05.284Z,96669.59
2019-03-13T23:09:39.732Z,96661.05
2019-03-13T23:12:12.688Z,96670.35
2019-03-13T23:14:46.977Z,96670.09
2019-03-13T23:17:21.103Z,96675.80
2019-03-13T23:19:55.714Z,96671.84
2019-03-13T23:22:30.283Z,96668.81
2019-03-13T23:25:04.739Z,96684.69
2019-03-13T23:27:39.256Z,96685.45
2019-03-13T23:30:13.912Z,96693.41
2019-03-13T23:32:48.294Z,96698.27
2019-03-13T23:35:23.104Z,96699.64
2019-03-13T23:37:57.616Z,96712.24
2019-03-13T23:40:31.984Z,96712.24
2019-03-13T23:43:06.337Z,96716.39
2019-03-13T23:45:40.771Z,96700.83
2019-03-13T23:48:15.102Z,96706.47
2019-03-13T23:50:49.729Z,96726.70
2019-03-13T23:53:22.805Z,96726.70
2019-03-13T23:55:56.949Z,96742.58
2019-03-13T23:58:29.997Z,96727.81
